createdAt,value
2022-12-13T00:01:31.255Z,94798.59
2022-12-13T00:04:01.506Z,94797.53
2022-12-13T00:06:31.451Z,94796.22
2022-12-13T00:08:59.406Z,94804.72
2022-12-13T00:11:27.436Z,94802.84
2022-12-13T00:13:56.509Z,94791.22
2022-12-13T00:16:26.587Z,94808.09
2022-12-13T00:18:56.532Z,94811.53
2022-12-13T00:21:27.029Z,94805.97
2022-12-13T00:23:56.280Z,94808.63
2022-12-13T00:26:27.071Z,94804.44
2022-12-13T00:28:55.541Z,94805.22
2022-12-13T00:34:13.886Z,94818.13
2022-12-13T00:36:41.764Z,94823.44
2022-12-13T00:39:13.904Z,94820.00
2022-12-13T00:41:41.997Z,94812.59
2022-12-13T00:44:12.484Z,94818.44
2022-12-13T00:46:41.262Z,94826.34
2022-12-13T00:49:09.095Z,94826.09
2022-12-13T00:51:37.141Z,94827.72
2022-12-13T00:54:05.475Z,94822.66
2022-12-13T00:56:34.966Z,94835.59
2022-12-13T00:59:02.833Z,94823.44
2022-12-13T01:01:32.518Z,94816.53
2022-12-13T01:04:04.858Z,94826.59
2022-12-13T01:06:37.079Z,94826.59
2022-12-13T01:09:07.633Z,94824.75
2022-12-13T01:11:37.358Z,94818.66
2022-12-13T01:14:05.267Z,94825.84
2022-12-13T01:16:33.229Z,94823.47
2022-12-13T01:19:01.308Z,94830.59
2022-12-13T01:21:29.800Z,94825.31
2022-12-13T01:24:03.328Z,94815.81
2022-12-13T01:26:31.724Z,94822.44
2022-12-13T01:29:01.265Z,94826.63
2022-12-13T01:31:29.490Z,94820.81
2022-12-13T01:33:57.994Z,94814.22
2022-12-13T01:36:27.399Z,94815.53
2022-12-13T01:38:58.121Z,94811.88
2022-12-13T01:41:27.851Z,94811.34
2022-12-13T01:44:01.014Z,94826.44
2022-12-13T01:46:30.728Z,94824.59
2022-12-13T01:49:04.196Z,94829.38
2022-12-13T01:51:36.968Z,94824.09
2022-12-13T01:54:06.763Z,94823.81
2022-12-13T01:56:39.778Z,94833.06
2022-12-13T01:59:10.217Z,94825.16
2022-12-13T02:01:40.426Z,94826.75
2022-12-13T02:04:09.589Z,94816.47
2022-12-13T02:06:40.933Z,94822.28
2022-12-13T02:09:10.132Z,94818.81
2022-12-13T02:11:41.921Z,94832.03
2022-12-13T02:14:09.929Z,94823.31
2022-12-13T02:16:53.169Z,94826.75
2022-12-13T02:20:03.170Z,94812.50
2022-12-13T02:22:56.913Z,94818.28
2022-12-13T02:25:53.708Z,94820.44
2022-12-13T02:28:43.862Z,94828.88
2022-12-13T02:31:16.011Z,94828.31
2022-12-13T02:33:54.397Z,94809.25
2022-12-13T02:36:36.714Z,94810.84
2022-12-13T02:39:11.838Z,94835.41
2022-12-13T02:41:45.236Z,94843.13
2022-12-13T02:44:22.790Z,94851.09
2022-12-13T02:46:56.040Z,94838.94
2022-12-13T02:49:26.622Z,94835.25
2022-12-13T02:51:57.861Z,94837.63
2022-12-13T02:54:26.127Z,94822.84
2022-12-13T02:56:55.701Z,94830.50
2022-12-13T02:59:27.043Z,94837.41
2022-12-13T03:02:09.947Z,94838.44
2022-12-13T03:05:03.835Z,94844.25
2022-12-13T03:07:40.024Z,94851.66
2022-12-13T03:10:16.846Z,94849.81
2022-12-13T03:13:12.366Z,94847.97
2022-12-13T03:15:47.376Z,94856.94
2022-12-13T03:18:20.020Z,94848.22
2022-12-13T03:20:49.340Z,94842.16
2022-12-13T03:23:18.314Z,94844.28
2022-12-13T03:25:48.458Z,94855.38
2022-12-13T03:28:16.687Z,94860.38
2022-12-13T03:30:44.732Z,94839.53
2022-12-13T03:33:12.738Z,94853.78
2022-12-13T03:35:45.143Z,94860.94
2022-12-13T03:38:22.313Z,94868.88
2022-12-13T03:40:53.158Z,94877.56
2022-12-13T03:43:22.270Z,94870.19
2022-12-13T03:45:51.380Z,94862.53
2022-12-13T03:48:22.596Z,94864.09
2022-12-13T03:50:54.354Z,94869.13
2022-12-13T03:53:33.832Z,94848.25
2022-12-13T03:56:03.284Z,94875.19
2022-12-13T03:58:35.131Z,94877.84
2022-12-13T04:01:06.615Z,94879.16
2022-12-13T04:03:35.069Z,94895.78
2022-12-13T04:06:05.109Z,94884.44
2022-12-13T04:08:33.335Z,94884.44
2022-12-13T04:11:21.211Z,94896.84
2022-12-13T04:13:48.066Z,94899.19
2022-12-13T04:16:16.017Z,94895.50
2022-12-13T04:18:44.104Z,94891.81
2022-12-13T04:21:13.369Z,94895.78
2022-12-13T04:23:41.316Z,94891.00
2022-12-13T04:26:10.430Z,94912.41
2022-12-13T04:28:38.324Z,94917.16
2022-12-13T04:31:06.428Z,94925.63
2022-12-13T04:33:34.430Z,94927.16
2022-12-13T04:36:03.722Z,94897.53
2022-12-13T04:38:32.916Z,94939.28
2022-12-13T04:41:08.376Z,94945.63
2022-12-13T04:43:36.279Z,94933.97
2022-12-13T04:46:04.161Z,94931.88
2022-12-13T04:48:34.524Z,94936.88
2022-12-13T04:51:02.771Z,94934.47
2022-12-13T04:53:32.208Z,94951.13
2022-12-13T04:56:00.567Z,94926.25
2022-12-13T04:58:28.607Z,94953.47
2022-12-13T05:00:56.883Z,94947.16
2022-12-13T05:03:25.373Z,94942.66
2022-12-13T05:05:53.346Z,94927.84
2022-12-13T05:08:21.273Z,94955.59
2022-12-13T05:10:50.546Z,94959.25
2022-12-13T05:13:18.386Z,94955.34
2022-12-13T05:15:49.520Z,94959.56
2022-12-13T05:18:21.470Z,94978.31
2022-12-13T05:20:51.219Z,94966.16
2022-12-13T05:23:22.432Z,94960.84
2022-12-13T05:25:52.751Z,94969.31
2022-12-13T05:28:28.416Z,94968.25
2022-12-13T05:30:57.684Z,94972.78
2022-12-13T05:33:26.595Z,94944.72
2022-12-13T05:35:59.404Z,94981.72
2022-12-13T05:38:28.813Z,94984.09
2022-12-13T05:40:58.137Z,94970.63
2022-12-13T05:43:42.320Z,94975.09
2022-12-13T05:46:11.825Z,94999.66
2022-12-13T05:48:39.887Z,94985.38
2022-12-13T05:51:09.828Z,95000.47
2022-12-13T05:53:39.521Z,95003.69
2022-12-13T05:56:11.708Z,95000.78
2022-12-13T05:58:40.956Z,94998.91
2022-12-13T06:01:10.748Z,94992.34
2022-12-13T06:03:38.960Z,95015.81
2022-12-13T06:06:09.117Z,95019.53
2022-12-13T06:08:37.815Z,95021.69
2022-12-13T06:11:11.325Z,95028.81
2022-12-13T06:13:42.830Z,95027.50
2022-12-13T06:16:23.400Z,95025.44
2022-12-13T06:19:00.988Z,95007.16
2022-12-13T06:21:43.886Z,95013.53
2022-12-13T06:24:15.726Z,95028.59
2022-12-13T06:26:46.102Z,95020.66
2022-12-13T06:29:23.605Z,95020.94
2022-12-13T06:31:54.875Z,95014.84
2022-12-13T06:34:29.650Z,95018.59
2022-12-13T06:36:57.519Z,95024.91
2022-12-13T06:39:25.968Z,95029.09
2022-12-13T06:42:03.386Z,95026.47
2022-12-13T06:44:31.349Z,95034.13
2022-12-13T06:47:10.719Z,95032.31
2022-12-13T06:49:41.942Z,95040.25
2022-12-13T06:52:11.853Z,95019.34
2022-12-13T06:54:40.005Z,95039.19
2022-12-13T06:57:09.415Z,95029.38
2022-12-13T06:59:37.396Z,95032.06
2022-12-13T07:02:24.688Z,94989.47
2022-12-13T08:01:56.671Z,95076.41
2022-12-13T08:04:24.765Z,95076.41
2022-12-13T08:06:52.765Z,95073.19
2022-12-13T08:09:21.111Z,95066.88
2022-12-13T08:11:48.943Z,95076.66
2022-12-13T08:14:16.825Z,95068.47
2022-12-13T08:16:44.683Z,95080.38
2022-12-13T08:19:14.180Z,95079.81
2022-12-13T08:21:54.568Z,95079.81
2022-12-13T08:24:23.975Z,95075.84
2022-12-13T08:26:52.242Z,95067.88
2022-12-13T08:29:23.230Z,95067.81
2022-12-13T08:32:02.120Z,95091.31
2022-12-13T08:34:31.807Z,95085.75
2022-12-13T08:37:01.837Z,95065.81
2022-12-13T08:39:30.291Z,95033.25
2022-12-13T08:42:16.369Z,95062.28
2022-12-13T08:44:45.982Z,95061.69
2022-12-13T08:47:24.578Z,95068.50
2022-12-13T08:49:56.129Z,95040.13
2022-12-13T08:52:30.755Z,95054.81
2022-12-13T08:54:58.651Z,95046.25
2022-12-13T08:57:26.537Z,95042.00
2022-12-13T08:59:55.357Z,95047.34
2022-12-13T09:02:23.362Z,95038.13
2022-12-13T09:04:51.248Z,95026.47
2022-12-13T09:07:20.535Z,95036.53
2022-12-13T09:09:54.904Z,95036.50
2022-12-13T09:12:29.651Z,95038.50
2022-12-13T09:15:01.629Z,95033.66
2022-12-13T09:17:36.769Z,95024.56
2022-12-13T09:20:10.062Z,95027.91
2022-12-13T09:23:02.115Z,95018.13
2022-12-13T09:25:37.172Z,95022.31
2022-12-13T09:28:07.044Z,95016.63
2022-12-13T09:30:35.025Z,95013.78
2022-12-13T09:33:18.320Z,95006.00
2022-12-13T09:35:50.787Z,95015.16
2022-12-13T09:38:20.024Z,95007.66
2022-12-13T09:40:50.623Z,95015.72
2022-12-13T09:43:33.775Z,95017.50
2022-12-13T09:46:23.242Z,94992.22
2022-12-13T09:49:01.447Z,95002.66
2022-12-13T09:51:41.490Z,94999.03
2022-12-13T09:54:19.693Z,94996.53
2022-12-13T09:56:51.200Z,94993.34
2022-12-13T09:59:21.827Z,95004.09
2022-12-13T10:01:49.752Z,95007.19
2022-12-13T10:04:19.205Z,95004.63
2022-12-13T10:06:47.276Z,94993.47
2022-12-13T10:09:16.504Z,94998.97
2022-12-13T10:11:50.819Z,95002.34
2022-12-13T10:14:25.640Z,94993.84
2022-12-13T10:16:58.237Z,94998.50
2022-12-13T10:19:34.726Z,94984.38
2022-12-13T10:22:07.334Z,94988.03
2022-12-13T10:24:52.274Z,94981.06
2022-12-13T10:27:26.778Z,94969.38
2022-12-13T10:30:00.993Z,94958.19
2022-12-13T10:32:28.978Z,94954.94
2022-12-13T10:34:56.955Z,94960.78
2022-12-13T10:37:30.515Z,94950.81
2022-12-13T10:40:00.143Z,94947.72
2022-12-13T10:42:33.833Z,94953.56
2022-12-13T10:45:23.079Z,94940.44
2022-12-13T10:47:52.134Z,94937.59
2022-12-13T10:50:26.175Z,94934.97
2022-12-13T10:52:55.671Z,94937.72
2022-12-13T10:55:30.932Z,94923.09
2022-12-13T10:58:02.241Z,94926.81
2022-12-13T11:00:39.155Z,94929.69
2022-12-13T11:03:07.892Z,94917.41
2022-12-13T11:05:37.717Z,94925.78
2022-12-13T11:08:26.581Z,94919.25
2022-12-13T11:11:00.533Z,94920.91
2022-12-13T11:13:36.934Z,94924.25
2022-12-13T11:16:06.605Z,94910.50
2022-12-13T11:18:40.565Z,94915.53
2022-12-13T11:21:08.514Z,94914.97
2022-12-13T11:23:39.019Z,94912.81
2022-12-13T11:26:11.047Z,94900.88
2022-12-13T11:28:55.619Z,94900.28
2022-12-13T11:31:32.614Z,94905.69
2022-12-13T11:34:12.836Z,94906.63
2022-12-13T11:36:48.591Z,94912.16
2022-12-13T11:39:23.122Z,94913.44
2022-12-13T11:41:57.947Z,94915.81
2022-12-13T11:44:34.494Z,94916.63
2022-12-13T11:47:02.483Z,94911.34
2022-12-13T11:49:39.465Z,94914.69
2022-12-13T11:52:14.716Z,94916.56
2022-12-13T11:54:50.728Z,94907.06
2022-12-13T11:57:34.392Z,94894.91
2022-12-13T12:00:13.274Z,94895.38
2022-12-13T12:02:46.923Z,94894.28
2022-12-13T12:05:28.226Z,94894.13
2022-12-13T12:08:32.344Z,94892.13
2022-12-13T12:10:50.608Z,94883.09
2022-12-13T12:13:24.653Z,94883.16
2022-12-13T12:16:05.889Z,94876.72
2022-12-13T12:18:34.448Z,94889.88
2022-12-13T12:21:13.699Z,94894.38
2022-12-13T12:23:58.461Z,94892.22
2022-12-13T12:26:35.371Z,94887.88
2022-12-13T12:29:21.363Z,94882.44
2022-12-13T12:31:58.100Z,94895.97
2022-12-13T12:34:38.295Z,94892.91
2022-12-13T12:37:17.403Z,94902.22
2022-12-13T12:40:00.415Z,94888.22
2022-12-13T12:43:11.844Z,94897.50
2022-12-13T12:45:55.967Z,94898.59
2022-12-13T12:49:00.618Z,94899.50
2022-12-13T12:51:37.928Z,94907.75
2022-12-13T12:54:32.160Z,94904.72
2022-12-13T12:57:07.613Z,94908.31
2022-12-13T12:59:46.644Z,94916.63
2022-12-13T13:02:22.821Z,94914.97
2022-12-13T13:04:55.894Z,94915.41
2022-12-13T13:07:29.475Z,94923.59
2022-12-13T13:09:58.584Z,94913.25
2022-12-13T13:12:45.183Z,94924.66
2022-12-13T13:15:50.585Z,94932.91
2022-12-13T13:18:50.271Z,94937.09
2022-12-13T13:21:34.201Z,94947.75
2022-12-13T13:24:23.989Z,94948.59
2022-12-13T13:26:54.251Z,94955.88
2022-12-13T13:29:34.018Z,94952.94
2022-12-13T13:32:05.119Z,94969.88
2022-12-13T13:34:37.262Z,94965.69
2022-12-13T13:37:05.765Z,94970.31
2022-12-13T13:39:54.388Z,94978.19
2022-12-13T13:42:23.841Z,94970.63
2022-12-13T13:45:23.565Z,94961.97
2022-12-13T13:48:14.226Z,94959.19
2022-12-13T13:51:15.491Z,94952.13
2022-12-13T13:54:27.996Z,94959.38
2022-12-13T13:58:00.393Z,94953.88
2022-12-13T14:00:21.624Z,94932.91
2022-12-13T14:03:33.468Z,94941.53
2022-12-13T14:06:43.827Z,94953.88
2022-12-13T14:09:46.939Z,94940.03
2022-12-13T14:12:50.167Z,94924.25
2022-12-13T14:16:01.171Z,94922.81
2022-12-13T14:19:12.539Z,94923.72
2022-12-13T14:21:53.929Z,94930.22
2022-12-13T14:24:29.435Z,94923.00
2022-12-13T14:27:19.793Z,94927.69
2022-12-13T14:29:58.475Z,94932.97
2022-12-13T14:32:30.032Z,94936.75
2022-12-13T14:34:58.962Z,94841.56
2022-12-13T14:37:30.637Z,94928.59
2022-12-13T14:39:59.141Z,94922.56
2022-12-13T14:42:30.284Z,94909.28
2022-12-13T14:45:14.484Z,94910.91
2022-12-13T14:47:44.554Z,94920.72
2022-12-13T14:50:17.875Z,94921.53
2022-12-13T14:52:47.372Z,94926.38
2022-12-13T14:55:25.524Z,94908.25
2022-12-13T14:57:55.036Z,94844.72
2022-12-13T15:00:26.883Z,94932.31
2022-12-13T15:02:58.182Z,94952.13
2022-12-13T15:05:29.442Z,94947.50
2022-12-13T15:07:58.145Z,94954.94
2022-12-13T15:10:33.424Z,94950.06
2022-12-13T15:13:01.427Z,94961.16
2022-12-13T15:15:32.239Z,94867.03
2022-12-13T15:18:19.235Z,94952.91
2022-12-13T15:20:48.797Z,94957.22
2022-12-13T15:23:26.440Z,94951.94
2022-12-13T15:26:00.277Z,94960.97
2022-12-13T15:28:32.593Z,94969.75
2022-12-13T15:31:02.188Z,94847.25
2022-12-13T15:33:39.332Z,94981.31
2022-12-13T15:36:16.250Z,94992.59
2022-12-13T15:38:50.590Z,94992.13
2022-12-13T15:41:20.516Z,94992.91
2022-12-13T15:43:51.822Z,94986.47
2022-12-13T15:46:26.827Z,94984.44
2022-12-13T15:48:58.343Z,94854.81
2022-12-13T15:51:28.935Z,94975.34
2022-12-13T15:54:21.770Z,94971.19
2022-12-13T15:57:02.348Z,94970.38
2022-12-13T15:59:32.675Z,94972.19
2022-12-13T16:02:01.706Z,94969.00
2022-12-13T16:04:32.939Z,94957.09
2022-12-13T16:07:02.351Z,94958.16
2022-12-13T16:09:34.677Z,94969.06
2022-12-13T16:12:05.766Z,94968.31
2022-12-13T16:14:49.437Z,94973.91
2022-12-13T16:17:24.623Z,94954.88
2022-12-13T16:19:54.862Z,94972.31
2022-12-13T16:22:24.145Z,94972.00
2022-12-13T16:24:52.842Z,94914.75
2022-12-13T16:27:21.139Z,94963.84
2022-12-13T16:29:48.948Z,94969.88
2022-12-13T16:32:17.010Z,94940.84
2022-12-13T16:34:44.871Z,94961.66
2022-12-13T16:37:26.383Z,94975.41
2022-12-13T16:39:55.269Z,94977.03
2022-12-13T16:42:26.359Z,94974.72
2022-12-13T16:45:18.157Z,94971.28
2022-12-13T16:47:48.770Z,94955.53
2022-12-13T16:50:19.294Z,94978.28
2022-12-13T16:52:49.144Z,94978.03
2022-12-13T16:55:17.234Z,94975.94
2022-12-13T16:57:45.088Z,94978.84
2022-12-13T17:00:14.398Z,94980.53
2022-12-13T17:02:42.313Z,94980.88
2022-12-13T17:05:10.518Z,94990.16
2022-12-13T17:07:38.356Z,95002.41
2022-12-13T17:10:09.550Z,95007.75
2022-12-13T17:12:37.475Z,94997.50
2022-12-13T17:15:06.579Z,94986.97
2022-12-13T17:17:34.479Z,95001.78
2022-12-13T17:20:02.406Z,94996.88
2022-12-13T17:22:30.424Z,94993.72
2022-12-13T17:24:58.279Z,94997.41
2022-12-13T17:27:27.686Z,95001.13
2022-12-13T17:29:55.751Z,94990.03
2022-12-13T17:32:23.717Z,95003.53
2022-12-13T17:34:52.462Z,94950.66
2022-12-13T17:37:20.919Z,94984.19
2022-12-13T17:39:48.820Z,94981.06
2022-12-13T17:42:16.783Z,94998.25
2022-12-13T17:44:46.284Z,95003.81
2022-12-13T17:47:14.462Z,94992.97
2022-12-13T17:49:42.462Z,94985.06
2022-12-13T17:52:10.348Z,94981.06
2022-12-13T17:54:38.286Z,94990.59
2022-12-13T17:57:06.166Z,94987.44
2022-12-13T17:59:38.195Z,94993.03
2022-12-13T18:02:12.542Z,95010.22
2022-12-13T18:04:40.645Z,94998.81
2022-12-13T18:07:08.628Z,94996.47
2022-12-13T18:09:36.505Z,94997.50
2022-12-13T18:12:04.562Z,95008.09
2022-12-13T18:14:32.423Z,94992.72
2022-12-13T18:17:00.309Z,94999.06
2022-12-13T18:19:32.046Z,94995.91
2022-12-13T18:22:00.525Z,94990.91
2022-12-13T18:24:28.946Z,94976.88
2022-12-13T18:26:56.826Z,94963.41
2022-12-13T18:29:24.701Z,94990.09
2022-12-13T18:31:52.620Z,94989.28
2022-12-13T18:34:20.530Z,94984.00
2022-12-13T18:36:49.792Z,94973.69
2022-12-13T18:39:17.714Z,94991.13
2022-12-13T18:41:45.625Z,95008.06
2022-12-13T18:44:13.594Z,95001.47
2022-12-13T18:46:45.907Z,95013.38
2022-12-13T18:49:14.464Z,95014.94
2022-12-13T18:51:42.462Z,95005.16
2022-12-13T18:54:12.319Z,95022.34
2022-12-13T18:56:40.265Z,94995.91
2022-12-13T18:59:08.309Z,95020.22
2022-12-13T19:01:36.239Z,95039.84
2022-12-13T19:04:04.326Z,95039.28
2022-12-13T19:06:32.206Z,95012.56
2022-12-13T19:09:00.163Z,95033.44
2022-12-13T19:11:29.824Z,95024.44
2022-12-13T19:13:58.286Z,95001.69
2022-12-13T19:16:26.920Z,94994.78
2022-12-13T19:18:55.232Z,95017.78
2022-12-13T19:21:23.674Z,95007.19
2022-12-13T19:23:57.403Z,95020.69
2022-12-13T19:26:27.156Z,95020.19
2022-12-13T19:28:57.891Z,95010.13
2022-12-13T19:31:31.151Z,95024.38
2022-12-13T19:34:01.338Z,95011.94
2022-12-13T19:36:29.398Z,95026.72
2022-12-13T19:38:57.391Z,95015.88
2022-12-13T19:41:25.435Z,95019.56
2022-12-13T19:43:54.197Z,95007.13
2022-12-13T19:46:23.715Z,94996.81
2022-12-13T19:48:51.689Z,95002.59
2022-12-13T19:51:19.827Z,95003.66
2022-12-13T19:53:48.392Z,94988.31
2022-12-13T19:56:18.004Z,95017.94
2022-12-13T19:58:46.837Z,95013.72
2022-12-13T20:01:15.530Z,94994.91
2022-12-13T20:03:46.521Z,94956.06
2022-12-13T20:06:17.076Z,94946.53
2022-12-13T20:08:45.378Z,95025.88
2022-12-13T20:11:14.974Z,95028.78
2022-12-13T20:13:42.999Z,95025.59
2022-12-13T20:16:16.189Z,95016.84
2022-12-13T20:18:46.004Z,94959.75
2022-12-13T20:21:16.226Z,95013.88
2022-12-13T20:23:49.005Z,94996.72
2022-12-13T20:26:20.340Z,95016.50
2022-12-13T20:28:49.123Z,95003.28
2022-12-13T20:31:19.505Z,95020.19
2022-12-13T20:33:48.946Z,95024.16
2022-12-13T20:36:25.039Z,95020.44
2022-12-13T20:38:53.835Z,94999.81
2022-12-13T20:41:21.732Z,95001.13
2022-12-13T20:43:52.713Z,95012.22
2022-12-13T20:46:21.036Z,94997.59
2022-12-13T20:48:51.280Z,94981.66
2022-12-13T20:51:20.981Z,94981.69
2022-12-13T20:53:50.451Z,94989.69
2022-12-13T20:56:20.325Z,95018.47
2022-12-13T20:58:48.341Z,95016.34
2022-12-13T21:01:18.016Z,95007.00
2022-12-13T21:03:46.326Z,94975.88
2022-12-13T21:06:15.625Z,95024.72
2022-12-13T21:08:52.240Z,95014.47
2022-12-13T21:11:27.147Z,95036.97
2022-12-13T21:14:01.222Z,95024.47
2022-12-13T21:16:37.380Z,95039.00
2022-12-13T21:19:06.857Z,95019.13
2022-12-13T21:21:36.368Z,95035.94
2022-12-13T21:24:04.577Z,95021.69
2022-12-13T21:26:35.715Z,95031.72
2022-12-13T21:29:07.295Z,95033.06
2022-12-13T21:31:37.256Z,95031.47
2022-12-13T21:34:07.016Z,95033.84
2022-12-13T21:36:37.987Z,94995.03
2022-12-13T21:39:07.937Z,94989.28
2022-12-13T21:41:35.790Z,94986.34
2022-12-13T21:44:03.693Z,95038.13
2022-12-13T21:46:55.266Z,95041.78
2022-12-13T21:49:19.867Z,95001.03
2022-12-13T21:51:49.174Z,95035.09
2022-12-13T21:54:18.273Z,95035.66
2022-12-13T21:57:08.969Z,95024.50
2022-12-13T21:59:36.928Z,95036.34
2022-12-13T22:02:13.073Z,95025.56
2022-12-13T22:04:43.559Z,95026.06
2022-12-13T22:07:16.204Z,94969.47
2022-12-13T22:09:44.240Z,95004.09
2022-12-13T22:12:21.914Z,95024.69
2022-12-13T22:14:49.801Z,94985.00
2022-12-13T22:17:18.154Z,95034.59
2022-12-13T22:19:48.371Z,95033.50
2022-12-13T22:22:19.373Z,95044.88
2022-12-13T22:24:53.105Z,95038.22
2022-12-13T22:27:24.107Z,95033.91
2022-12-13T22:29:52.708Z,95040.81
2022-12-13T22:32:20.754Z,95045.34
2022-12-13T22:34:48.834Z,95024.19
2022-12-13T22:37:18.333Z,95038.69
2022-12-13T22:39:46.239Z,95041.88
2022-12-13T22:42:14.192Z,95044.06
2022-12-13T22:44:42.034Z,95054.66
2022-12-13T22:47:09.854Z,95032.94
2022-12-13T22:49:37.690Z,95041.03
2022-12-13T22:52:05.958Z,95050.66
2022-12-13T22:54:35.865Z,95062.28
2022-12-13T22:57:03.798Z,95050.59
2022-12-13T22:59:32.110Z,95059.19
2022-12-13T23:02:02.892Z,95042.00
2022-12-13T23:04:31.876Z,95040.06
2022-12-13T23:06:59.942Z,95060.44
2022-12-13T23:09:27.954Z,95057.22
2022-12-13T23:12:14.900Z,95047.19
2022-12-13T23:14:42.768Z,95048.03
2022-12-13T23:17:10.671Z,95033.44
2022-12-13T23:19:51.288Z,95044.13
2022-12-13T23:22:21.898Z,95049.97
2022-12-13T23:24:50.261Z,95051.31
2022-12-13T23:27:20.486Z,95056.88
2022-12-13T23:29:48.352Z,95031.00
2022-12-13T23:32:16.244Z,95046.25
2022-12-13T23:34:44.074Z,95041.56
2022-12-13T23:37:12.002Z,95056.09
2022-12-13T23:39:39.885Z,95051.06
2022-12-13T23:42:07.858Z,95055.06
2022-12-13T23:44:37.588Z,95071.28
2022-12-13T23:47:05.573Z,95053.28
2022-12-13T23:49:33.465Z,95003.63
2022-12-13T23:52:01.371Z,95069.16
2022-12-13T23:54:29.248Z,95068.63
2022-12-13T23:56:57.076Z,95055.09
2022-12-13T23:59:26.112Z,95075.47
